sensor_id;sensor_type;location;lat;lon;timestamp;P1;durP1;ratioP1;P2;durP2;ratioP2
42912;SDS011;50720;54.324;18.558;2022-09-21T00:02:08;2.42;;;1.63;;
42912;SDS011;50720;54.324;18.558;2022-09-21T00:04:38;3.53;;;1.83;;
42912;SDS011;50720;54.324;18.558;2022-09-21T00:07:08;5.28;;;1.45;;
42912;SDS011;50720;54.324;18.558;2022-09-21T00:09:38;4.22;;;1.30;;
42912;SDS011;50720;54.324;18.558;2022-09-21T00:12:07;4.80;;;2.20;;
42912;SDS011;50720;54.324;18.558;2022-09-21T00:14:39;2.92;;;1.55;;
42912;SDS011;50720;54.324;18.558;2022-09-21T00:17:08;7.07;;;1.73;;
42912;SDS011;50720;54.324;18.558;2022-09-21T00:19:37;6.28;;;1.70;;
42912;SDS011;50720;54.324;18.558;2022-09-21T00:22:08;4.07;;;1.92;;
42912;SDS011;50720;54.324;18.558;2022-09-21T00:24:37;3.45;;;2.22;;
42912;SDS011;50720;54.324;18.558;2022-09-21T00:27:06;6.28;;;2.22;;
42912;SDS011;50720;54.324;18.558;2022-09-21T00:29:38;2.92;;;1.95;;
42912;SDS011;50720;54.324;18.558;2022-09-21T00:32:07;4.43;;;1.20;;
42912;SDS011;50720;54.324;18.558;2022-09-21T00:34:38;1.67;;;0.98;;
42912;SDS011;50720;54.324;18.558;2022-09-21T00:37:07;1.15;;;0.90;;
42912;SDS011;50720;54.324;18.558;2022-09-21T00:39:38;4.55;;;1.20;;
42912;SDS011;50720;54.324;18.558;2022-09-21T00:42:08;1.05;;;0.82;;
42912;SDS011;50720;54.324;18.558;2022-09-21T00:44:39;5.18;;;1.40;;
42912;SDS011;50720;54.324;18.558;2022-09-21T00:47:10;4.80;;;2.58;;
42912;SDS011;50720;54.324;18.558;2022-09-21T00:49:41;7.35;;;1.45;;
42912;SDS011;50720;54.324;18.558;2022-09-21T00:52:17;6.50;;;1.90;;
42912;SDS011;50720;54.324;18.558;2022-09-21T00:54:49;5.97;;;1.60;;
42912;SDS011;50720;54.324;18.558;2022-09-21T00:57:21;8.13;;;2.33;;
42912;SDS011;50720;54.324;18.558;2022-09-21T00:59:56;4.63;;;1.70;;
42912;SDS011;50720;54.324;18.558;2022-09-21T01:02:29;4.50;;;1.70;;
42912;SDS011;50720;54.324;18.558;2022-09-21T01:04:59;5.05;;;1.52;;
42912;SDS011;50720;54.324;18.558;2022-09-21T01:07:30;9.82;;;3.05;;
42912;SDS011;50720;54.324;18.558;2022-09-21T01:10:04;4.80;;;1.48;;
42912;SDS011;50720;54.324;18.558;2022-09-21T01:12:40;6.43;;;2.00;;
42912;SDS011;50720;54.324;18.558;2022-09-21T01:15:22;3.70;;;1.58;;
42912;SDS011;50720;54.324;18.558;2022-09-21T01:18:05;5.78;;;2.55;;
42912;SDS011;50720;54.324;18.558;2022-09-21T01:26:57;3.67;;;1.65;;
42912;SDS011;50720;54.324;18.558;2022-09-21T01:29:58;6.82;;;1.65;;
42912;SDS011;50720;54.324;18.558;2022-09-21T01:32:31;1.83;;;1.42;;
42912;SDS011;50720;54.324;18.558;2022-09-21T01:35:06;3.55;;;1.60;;
42912;SDS011;50720;54.324;18.558;2022-09-21T01:37:40;3.25;;;1.65;;
42912;SDS011;50720;54.324;18.558;2022-09-21T01:40:14;2.20;;;1.38;;
42912;SDS011;50720;54.324;18.558;2022-09-21T01:42:46;3.42;;;1.60;;
42912;SDS011;50720;54.324;18.558;2022-09-21T01:45:19;2.50;;;1.80;;
42912;SDS011;50720;54.324;18.558;2022-09-21T01:47:54;5.25;;;1.67;;
42912;SDS011;50720;54.324;18.558;2022-09-21T01:50:25;4.47;;;1.85;;
42912;SDS011;50720;54.324;18.558;2022-09-21T01:52:58;3.15;;;1.98;;
42912;SDS011;50720;54.324;18.558;2022-09-21T01:55:33;6.30;;;2.08;;
42912;SDS011;50720;54.324;18.558;2022-09-21T01:58:09;6.25;;;1.90;;
42912;SDS011;50720;54.324;18.558;2022-09-21T02:00:47;5.65;;;1.85;;
42912;SDS011;50720;54.324;18.558;2022-09-21T02:03:20;6.80;;;2.13;;
42912;SDS011;50720;54.324;18.558;2022-09-21T02:05:55;8.82;;;2.03;;
42912;SDS011;50720;54.324;18.558;2022-09-21T02:08:25;6.10;;;2.08;;
42912;SDS011;50720;54.324;18.558;2022-09-21T02:10:59;7.72;;;2.53;;
42912;SDS011;50720;54.324;18.558;2022-09-21T02:13:30;5.30;;;1.77;;
42912;SDS011;50720;54.324;18.558;2022-09-21T02:16:08;6.38;;;1.80;;
42912;SDS011;50720;54.324;18.558;2022-09-21T02:18:49;5.43;;;1.90;;
42912;SDS011;50720;54.324;18.558;2022-09-21T02:21:32;5.93;;;1.80;;
42912;SDS011;50720;54.324;18.558;2022-09-21T02:24:07;5.57;;;1.75;;
42912;SDS011;50720;54.324;18.558;2022-09-21T02:26:43;4.47;;;1.88;;
42912;SDS011;50720;54.324;18.558;2022-09-21T02:29:18;4.88;;;2.22;;
42912;SDS011;50720;54.324;18.558;2022-09-21T02:31:56;5.38;;;1.65;;
42912;SDS011;50720;54.324;18.558;2022-09-21T02:34:32;5.28;;;1.38;;
42912;SDS011;50720;54.324;18.558;2022-09-21T02:37:15;4.55;;;1.38;;
42912;SDS011;50720;54.324;18.558;2022-09-21T02:39:52;7.70;;;1.48;;
42912;SDS011;50720;54.324;18.558;2022-09-21T02:42:27;4.45;;;1.60;;
42912;SDS011;50720;54.324;18.558;2022-09-21T02:45:01;6.25;;;1.50;;
42912;SDS011;50720;54.324;18.558;2022-09-21T02:47:37;2.50;;;1.30;;
42912;SDS011;50720;54.324;18.558;2022-09-21T02:50:13;5.20;;;2.17;;
42912;SDS011;50720;54.324;18.558;2022-09-21T02:52:47;3.70;;;1.55;;
42912;SDS011;50720;54.324;18.558;2022-09-21T02:55:17;2.92;;;1.33;;
42912;SDS011;50720;54.324;18.558;2022-09-21T02:57:47;2.63;;;1.75;;
42912;SDS011;50720;54.324;18.558;2022-09-21T03:00:17;2.95;;;1.40;;
42912;SDS011;50720;54.324;18.558;2022-09-21T03:02:49;2.03;;;1.23;;
42912;SDS011;50720;54.324;18.558;2022-09-21T03:05:18;5.72;;;1.75;;
42912;SDS011;50720;54.324;18.558;2022-09-21T03:07:48;2.28;;;1.48;;
42912;SDS011;50720;54.324;18.558;2022-09-21T03:10:18;6.80;;;1.38;;
42912;SDS011;50720;54.324;18.558;2022-09-21T03:12:47;4.55;;;1.60;;
42912;SDS011;50720;54.324;18.558;2022-09-21T03:15:16;3.42;;;1.27;;
42912;SDS011;50720;54.324;18.558;2022-09-21T03:17:46;2.90;;;1.55;;
42912;SDS011;50720;54.324;18.558;2022-09-21T03:20:17;4.55;;;1.35;;
42912;SDS011;50720;54.324;18.558;2022-09-21T03:22:47;2.35;;;1.15;;
42912;SDS011;50720;54.324;18.558;2022-09-21T03:25:16;6.03;;;1.55;;
42912;SDS011;50720;54.324;18.558;2022-09-21T03:27:45;2.60;;;0.98;;
42912;SDS011;50720;54.324;18.558;2022-09-21T03:30:15;1.40;;;0.88;;
42912;SDS011;50720;54.324;18.558;2022-09-21T03:32:44;3.17;;;1.02;;
42912;SDS011;50720;54.324;18.558;2022-09-21T03:35:17;2.90;;;1.20;;
42912;SDS011;50720;54.324;18.558;2022-09-21T03:37:47;3.90;;;1.20;;
42912;SDS011;50720;54.324;18.558;2022-09-21T03:40:18;3.03;;;2.47;;
42912;SDS011;50720;54.324;18.558;2022-09-21T03:42:47;3.95;;;1.33;;
42912;SDS011;50720;54.324;18.558;2022-09-21T03:45:17;1.63;;;0.70;;
42912;SDS011;50720;54.324;18.558;2022-09-21T03:47:48;3.03;;;1.15;;
42912;SDS011;50720;54.324;18.558;2022-09-21T03:50:19;1.55;;;0.85;;
42912;SDS011;50720;54.324;18.558;2022-09-21T03:52:49;1.58;;;1.05;;
42912;SDS011;50720;54.324;18.558;2022-09-21T03:55:19;4.25;;;0.90;;
42912;SDS011;50720;54.324;18.558;2022-09-21T03:57:48;3.13;;;0.80;;
42912;SDS011;50720;54.324;18.558;2022-09-21T04:00:18;1.25;;;0.60;;
42912;SDS011;50720;54.324;18.558;2022-09-21T04:02:48;1.77;;;0.88;;
42912;SDS011;50720;54.324;18.558;2022-09-21T04:05:19;2.00;;;0.70;;
42912;SDS011;50720;54.324;18.558;2022-09-21T04:07:49;2.45;;;0.73;;
42912;SDS011;50720;54.324;18.558;2022-09-21T04:10:19;6.15;;;1.05;;
42912;SDS011;50720;54.324;18.558;2022-09-21T04:12:56;2.63;;;1.10;;
42912;SDS011;50720;54.324;18.558;2022-09-21T04:15:26;1.95;;;1.33;;
42912;SDS011;50720;54.324;18.558;2022-09-21T04:17:56;3.92;;;1.15;;
42912;SDS011;50720;54.324;18.558;2022-09-21T04:20:27;2.22;;;0.93;;
42912;SDS011;50720;54.324;18.558;2022-09-21T04:22:57;2.63;;;0.85;;
42912;SDS011;50720;54.324;18.558;2022-09-21T04:25:26;2.33;;;0.75;;
42912;SDS011;50720;54.324;18.558;2022-09-21T04:27:55;5.03;;;1.27;;
42912;SDS011;50720;54.324;18.558;2022-09-21T04:30:25;2.50;;;1.30;;
42912;SDS011;50720;54.324;18.558;2022-09-21T04:32:57;3.20;;;1.60;;
42912;SDS011;50720;54.324;18.558;2022-09-21T04:35:28;4.90;;;1.15;;
42912;SDS011;50720;54.324;18.558;2022-09-21T04:37:58;4.30;;;1.80;;
42912;SDS011;50720;54.324;18.558;2022-09-21T04:40:28;4.05;;;1.80;;
42912;SDS011;50720;54.324;18.558;2022-09-21T04:42:58;4.63;;;1.80;;
42912;SDS011;50720;54.324;18.558;2022-09-21T04:45:27;3.67;;;2.15;;
42912;SDS011;50720;54.324;18.558;2022-09-21T04:47:58;5.30;;;3.00;;
42912;SDS011;50720;54.324;18.558;2022-09-21T04:50:29;5.47;;;1.98;;
42912;SDS011;50720;54.324;18.558;2022-09-21T04:55:28;3.15;;;1.15;;
42912;SDS011;50720;54.324;18.558;2022-09-21T04:57:57;6.18;;;1.10;;
42912;SDS011;50720;54.324;18.558;2022-09-21T05:00:27;1.90;;;1.33;;
42912;SDS011;50720;54.324;18.558;2022-09-21T05:02:57;3.20;;;0.90;;
42912;SDS011;50720;54.324;18.558;2022-09-21T05:05:27;1.38;;;0.80;;
42912;SDS011;50720;54.324;18.558;2022-09-21T05:07:58;4.40;;;1.23;;
42912;SDS011;50720;54.324;18.558;2022-09-21T05:12:56;2.03;;;0.80;;
42912;SDS011;50720;54.324;18.558;2022-09-21T05:15:26;1.60;;;0.90;;
42912;SDS011;50720;54.324;18.558;2022-09-21T05:17:55;2.70;;;1.48;;
42912;SDS011;50720;54.324;18.558;2022-09-21T05:20:25;3.20;;;1.10;;
42912;SDS011;50720;54.324;18.558;2022-09-21T05:22:55;6.32;;;1.38;;
42912;SDS011;50720;54.324;18.558;2022-09-21T05:25:29;1.88;;;0.93;;
42912;SDS011;50720;54.324;18.558;2022-09-21T05:27:59;2.72;;;1.30;;
42912;SDS011;50720;54.324;18.558;2022-09-21T05:30:28;3.85;;;1.25;;
42912;SDS011;50720;54.324;18.558;2022-09-21T05:33:00;6.70;;;2.17;;
42912;SDS011;50720;54.324;18.558;2022-09-21T05:35:32;2.45;;;1.33;;
42912;SDS011;50720;54.324;18.558;2022-09-21T05:38:08;2.55;;;1.40;;
42912;SDS011;50720;54.324;18.558;2022-09-21T05:40:42;2.72;;;1.08;;
42912;SDS011;50720;54.324;18.558;2022-09-21T05:43:14;4.80;;;1.40;;
42912;SDS011;50720;54.324;18.558;2022-09-21T05:45:45;5.30;;;1.50;;
42912;SDS011;50720;54.324;18.558;2022-09-21T05:48:18;2.38;;;1.42;;
42912;SDS011;50720;54.324;18.558;2022-09-21T05:50:52;5.90;;;1.80;;
42912;SDS011;50720;54.324;18.558;2022-09-21T05:53:39;5.07;;;2.10;;
42912;SDS011;50720;54.324;18.558;2022-09-21T05:56:31;2.30;;;1.50;;
42912;SDS011;50720;54.324;18.558;2022-09-21T05:59:16;4.90;;;1.58;;
42912;SDS011;50720;54.324;18.558;2022-09-21T06:01:58;3.47;;;1.42;;
42912;SDS011;50720;54.324;18.558;2022-09-21T06:04:34;6.05;;;1.80;;
42912;SDS011;50720;54.324;18.558;2022-09-21T06:07:04;6.38;;;1.77;;
42912;SDS011;50720;54.324;18.558;2022-09-21T06:09:35;4.40;;;1.55;;
42912;SDS011;50720;54.324;18.558;2022-09-21T06:12:09;4.35;;;1.65;;
42912;SDS011;50720;54.324;18.558;2022-09-21T06:14:39;5.43;;;1.67;;
42912;SDS011;50720;54.324;18.558;2022-09-21T06:17:08;4.68;;;2.40;;
42912;SDS011;50720;54.324;18.558;2022-09-21T06:19:38;7.03;;;1.57;;
42912;SDS011;50720;54.324;18.558;2022-09-21T06:22:07;5.50;;;1.95;;
42912;SDS011;50720;54.324;18.558;2022-09-21T06:24:38;4.47;;;1.75;;
42912;SDS011;50720;54.324;18.558;2022-09-21T06:27:08;5.05;;;1.75;;
42912;SDS011;50720;54.324;18.558;2022-09-21T06:29:37;4.00;;;1.98;;
42912;SDS011;50720;54.324;18.558;2022-09-21T06:32:06;2.35;;;1.40;;
42912;SDS011;50720;54.324;18.558;2022-09-21T06:34:36;1.77;;;0.80;;
42912;SDS011;50720;54.324;18.558;2022-09-21T06:37:05;3.80;;;1.02;;
42912;SDS011;50720;54.324;18.558;2022-09-21T06:39:34;1.35;;;0.90;;
42912;SDS011;50720;54.324;18.558;2022-09-21T06:42:06;2.97;;;1.15;;
42912;SDS011;50720;54.324;18.558;2022-09-21T06:44:36;4.93;;;1.70;;
42912;SDS011;50720;54.324;18.558;2022-09-21T06:47:06;8.10;;;2.00;;
42912;SDS011;50720;54.324;18.558;2022-09-21T06:49:35;7.38;;;2.88;;
42912;SDS011;50720;54.324;18.558;2022-09-21T06:52:08;7.00;;;1.58;;
42912;SDS011;50720;54.324;18.558;2022-09-21T06:54:38;2.58;;;1.52;;
42912;SDS011;50720;54.324;18.558;2022-09-21T06:57:09;2.10;;;1.37;;
42912;SDS011;50720;54.324;18.558;2022-09-21T06:59:39;3.22;;;1.17;;
42912;SDS011;50720;54.324;18.558;2022-09-21T07:02:08;4.28;;;1.60;;
42912;SDS011;50720;54.324;18.558;2022-09-21T07:04:39;7.72;;;1.90;;
42912;SDS011;50720;54.324;18.558;2022-09-21T07:07:08;3.63;;;1.70;;
42912;SDS011;50720;54.324;18.558;2022-09-21T07:09:37;4.90;;;1.83;;
42912;SDS011;50720;54.324;18.558;2022-09-21T07:12:29;5.05;;;1.85;;
42912;SDS011;50720;54.324;18.558;2022-09-21T07:15:01;3.08;;;1.50;;
42912;SDS011;50720;54.324;18.558;2022-09-21T07:17:32;2.72;;;1.45;;
42912;SDS011;50720;54.324;18.558;2022-09-21T07:20:03;4.57;;;1.60;;
42912;SDS011;50720;54.324;18.558;2022-09-21T07:22:34;4.55;;;1.50;;
42912;SDS011;50720;54.324;18.558;2022-09-21T07:25:04;5.18;;;1.75;;
42912;SDS011;50720;54.324;18.558;2022-09-21T07:27:35;5.60;;;1.93;;
42912;SDS011;50720;54.324;18.558;2022-09-21T07:30:06;3.58;;;2.25;;
42912;SDS011;50720;54.324;18.558;2022-09-21T07:35:06;7.20;;;2.45;;
42912;SDS011;50720;54.324;18.558;2022-09-21T07:37:36;25.65;;;5.05;;
42912;SDS011;50720;54.324;18.558;2022-09-21T07:40:05;8.52;;;2.65;;
42912;SDS011;50720;54.324;18.558;2022-09-21T07:42:38;4.35;;;2.25;;
42912;SDS011;50720;54.324;18.558;2022-09-21T07:45:07;3.80;;;2.38;;
42912;SDS011;50720;54.324;18.558;2022-09-21T07:50:07;6.18;;;2.10;;
42912;SDS011;50720;54.324;18.558;2022-09-21T07:52:37;6.40;;;2.05;;
42912;SDS011;50720;54.324;18.558;2022-09-21T07:55:07;6.97;;;1.80;;
42912;SDS011;50720;54.324;18.558;2022-09-21T07:57:38;3.92;;;1.52;;
42912;SDS011;50720;54.324;18.558;2022-09-21T08:00:25;2.35;;;1.13;;
42912;SDS011;50720;54.324;18.558;2022-09-21T08:02:58;4.75;;;1.88;;
42912;SDS011;50720;54.324;18.558;2022-09-21T08:05:28;3.10;;;0.95;;
42912;SDS011;50720;54.324;18.558;2022-09-21T08:07:58;3.17;;;0.40;;
42912;SDS011;50720;54.324;18.558;2022-09-21T08:10:27;1.52;;;1.00;;
42912;SDS011;50720;54.324;18.558;2022-09-21T08:15:28;6.53;;;0.90;;
42912;SDS011;50720;54.324;18.558;2022-09-21T08:18:15;2.33;;;1.48;;
42912;SDS011;50720;54.324;18.558;2022-09-21T08:20:51;8.30;;;3.45;;
42912;SDS011;50720;54.324;18.558;2022-09-21T08:23:22;2.10;;;0.47;;
42912;SDS011;50720;54.324;18.558;2022-09-21T08:25:52;2.58;;;0.35;;
42912;SDS011;50720;54.324;18.558;2022-09-21T08:28:26;0.88;;;0.45;;
42912;SDS011;50720;54.324;18.558;2022-09-21T08:30:57;2.30;;;0.40;;
42912;SDS011;50720;54.324;18.558;2022-09-21T08:33:27;2.45;;;0.60;;
42912;SDS011;50720;54.324;18.558;2022-09-21T08:35:57;5.38;;;1.52;;
42912;SDS011;50720;54.324;18.558;2022-09-21T08:38:31;3.92;;;0.60;;
42912;SDS011;50720;54.324;18.558;2022-09-21T08:41:02;1.45;;;0.93;;
42912;SDS011;50720;54.324;18.558;2022-09-21T08:43:48;2.85;;;1.40;;
42912;SDS011;50720;54.324;18.558;2022-09-21T08:46:21;5.25;;;1.73;;
42912;SDS011;50720;54.324;18.558;2022-09-21T08:48:55;1.88;;;0.93;;
42912;SDS011;50720;54.324;18.558;2022-09-21T08:51:29;1.35;;;0.35;;
42912;SDS011;50720;54.324;18.558;2022-09-21T08:54:03;4.32;;;0.68;;
42912;SDS011;50720;54.324;18.558;2022-09-21T08:56:37;2.30;;;0.70;;
42912;SDS011;50720;54.324;18.558;2022-09-21T08:59:29;1.67;;;0.45;;
42912;SDS011;50720;54.324;18.558;2022-09-21T09:04:49;1.90;;;0.68;;
42912;SDS011;50720;54.324;18.558;2022-09-21T09:07:27;2.45;;;0.40;;
42912;SDS011;50720;54.324;18.558;2022-09-21T09:10:16;4.38;;;1.38;;
42912;SDS011;50720;54.324;18.558;2022-09-21T09:12:57;1.77;;;0.80;;
42912;SDS011;50720;54.324;18.558;2022-09-21T09:15:44;7.18;;;0.70;;
42912;SDS011;50720;54.324;18.558;2022-09-21T09:18:25;4.00;;;0.50;;
42912;SDS011;50720;54.324;18.558;2022-09-21T09:21:09;1.40;;;0.52;;
42912;SDS011;50720;54.324;18.558;2022-09-21T09:23:56;6.22;;;0.50;;
42912;SDS011;50720;54.324;18.558;2022-09-21T09:26:32;3.03;;;1.55;;
42912;SDS011;50720;54.324;18.558;2022-09-21T09:29:11;2.30;;;0.60;;
42912;SDS011;50720;54.324;18.558;2022-09-21T09:31:47;3.55;;;0.30;;
42912;SDS011;50720;54.324;18.558;2022-09-21T09:34:19;1.88;;;0.93;;
42912;SDS011;50720;54.324;18.558;2022-09-21T09:36:53;2.35;;;0.82;;
42912;SDS011;50720;54.324;18.558;2022-09-21T09:39:27;4.68;;;1.05;;
42912;SDS011;50720;54.324;18.558;2022-09-21T09:42:05;6.00;;;0.45;;
42912;SDS011;50720;54.324;18.558;2022-09-21T09:48:08;4.57;;;0.47;;
42912;SDS011;50720;54.324;18.558;2022-09-21T09:50:46;2.10;;;0.35;;
42912;SDS011;50720;54.324;18.558;2022-09-21T09:53:16;0.70;;;0.40;;
42912;SDS011;50720;54.324;18.558;2022-09-21T09:55:49;1.10;;;0.60;;
42912;SDS011;50720;54.324;18.558;2022-09-21T09:58:21;3.42;;;0.40;;
42912;SDS011;50720;54.324;18.558;2022-09-21T10:00:54;1.63;;;0.60;;
42912;SDS011;50720;54.324;18.558;2022-09-21T10:03:27;0.20;;;0.20;;
42912;SDS011;50720;54.324;18.558;2022-09-21T10:05:56;1.42;;;0.73;;
42912;SDS011;50720;54.324;18.558;2022-09-21T10:11:13;2.80;;;0.90;;
42912;SDS011;50720;54.324;18.558;2022-09-21T10:13:44;0.82;;;0.40;;
42912;SDS011;50720;54.324;18.558;2022-09-21T10:18:49;0.80;;;0.60;;
42912;SDS011;50720;54.324;18.558;2022-09-21T10:21:22;1.30;;;0.40;;
42912;SDS011;50720;54.324;18.558;2022-09-21T10:23:55;2.53;;;0.40;;
42912;SDS011;50720;54.324;18.558;2022-09-21T10:26:29;1.20;;;0.45;;
42912;SDS011;50720;54.324;18.558;2022-09-21T10:29:01;1.38;;;0.60;;
42912;SDS011;50720;54.324;18.558;2022-09-21T10:31:52;3.70;;;0.90;;
42912;SDS011;50720;54.324;18.558;2022-09-21T10:34:25;0.77;;;0.47;;
42912;SDS011;50720;54.324;18.558;2022-09-21T10:36:56;7.00;;;0.57;;
42912;SDS011;50720;54.324;18.558;2022-09-21T10:39:28;2.50;;;0.40;;
42912;SDS011;50720;54.324;18.558;2022-09-21T10:41:59;1.35;;;0.80;;
42912;SDS011;50720;54.324;18.558;2022-09-21T10:44:36;1.30;;;0.40;;
42912;SDS011;50720;54.324;18.558;2022-09-21T10:47:15;2.60;;;0.75;;
42912;SDS011;50720;54.324;18.558;2022-09-21T10:49:49;2.05;;;0.70;;
42912;SDS011;50720;54.324;18.558;2022-09-21T10:52:21;4.35;;;0.90;;
42912;SDS011;50720;54.324;18.558;2022-09-21T10:54:53;1.98;;;0.93;;
42912;SDS011;50720;54.324;18.558;2022-09-21T10:57:24;2.17;;;1.08;;
42912;SDS011;50720;54.324;18.558;2022-09-21T10:59:55;1.10;;;0.52;;
42912;SDS011;50720;54.324;18.558;2022-09-21T11:02:30;1.58;;;0.70;;
42912;SDS011;50720;54.324;18.558;2022-09-21T11:05:18;2.05;;;0.50;;
42912;SDS011;50720;54.324;18.558;2022-09-21T11:07:53;4.32;;;0.75;;
42912;SDS011;50720;54.324;18.558;2022-09-21T11:10:29;1.48;;;0.70;;
42912;SDS011;50720;54.324;18.558;2022-09-21T11:13:05;4.22;;;1.10;;
42912;SDS011;50720;54.324;18.558;2022-09-21T11:15:50;2.17;;;0.60;;
42912;SDS011;50720;54.324;18.558;2022-09-21T11:18:29;1.90;;;0.50;;
42912;SDS011;50720;54.324;18.558;2022-09-21T11:24:03;3.20;;;0.85;;
42912;SDS011;50720;54.324;18.558;2022-09-21T11:26:43;1.08;;;0.45;;
42912;SDS011;50720;54.324;18.558;2022-09-21T11:29:18;3.78;;;0.70;;
42912;SDS011;50720;54.324;18.558;2022-09-21T11:32:01;1.63;;;0.80;;
42912;SDS011;50720;54.324;18.558;2022-09-21T11:34:44;4.47;;;0.70;;
42912;SDS011;50720;54.324;18.558;2022-09-21T11:40:25;1.60;;;0.65;;
42912;SDS011;50720;54.324;18.558;2022-09-21T11:43:14;1.75;;;0.70;;
42912;SDS011;50720;54.324;18.558;2022-09-21T11:45:57;1.73;;;0.60;;
42912;SDS011;50720;54.324;18.558;2022-09-21T11:48:43;3.60;;;0.50;;
42912;SDS011;50720;54.324;18.558;2022-09-21T11:51:28;2.65;;;1.00;;
42912;SDS011;50720;54.324;18.558;2022-09-21T11:54:25;3.00;;;0.90;;
42912;SDS011;50720;54.324;18.558;2022-09-21T11:57:06;2.58;;;0.80;;
42912;SDS011;50720;54.324;18.558;2022-09-21T11:59:49;3.97;;;0.80;;
42912;SDS011;50720;54.324;18.558;2022-09-21T12:02:41;2.90;;;0.52;;
42912;SDS011;50720;54.324;18.558;2022-09-21T12:05:35;3.55;;;0.70;;
42912;SDS011;50720;54.324;18.558;2022-09-21T12:08:17;2.42;;;0.77;;
42912;SDS011;50720;54.324;18.558;2022-09-21T12:11:01;3.53;;;0.40;;
42912;SDS011;50720;54.324;18.558;2022-09-21T12:13:39;2.22;;;0.40;;
42912;SDS011;50720;54.324;18.558;2022-09-21T12:16:20;1.88;;;0.52;;
42912;SDS011;50720;54.324;18.558;2022-09-21T12:18:58;2.30;;;1.08;;
42912;SDS011;50720;54.324;18.558;2022-09-21T12:21:33;3.95;;;0.70;;
42912;SDS011;50720;54.324;18.558;2022-09-21T12:24:11;3.58;;;0.70;;
42912;SDS011;50720;54.324;18.558;2022-09-21T12:26:45;0.73;;;0.30;;
42912;SDS011;50720;54.324;18.558;2022-09-21T12:29:18;1.70;;;0.30;;
42912;SDS011;50720;54.324;18.558;2022-09-21T12:31:55;1.98;;;0.63;;
42912;SDS011;50720;54.324;18.558;2022-09-21T12:34:33;5.22;;;0.60;;
42912;SDS011;50720;54.324;18.558;2022-09-21T12:37:09;2.55;;;0.52;;
42912;SDS011;50720;54.324;18.558;2022-09-21T12:39:44;2.47;;;0.93;;
42912;SDS011;50720;54.324;18.558;2022-09-21T12:42:27;2.83;;;0.40;;
42912;SDS011;50720;54.324;18.558;2022-09-21T12:45:02;0.43;;;0.20;;
42912;SDS011;50720;54.324;18.558;2022-09-21T12:47:40;0.98;;;0.40;;
42912;SDS011;50720;54.324;18.558;2022-09-21T12:50:18;0.75;;;0.43;;
42912;SDS011;50720;54.324;18.558;2022-09-21T12:52:50;6.00;;;0.90;;
42912;SDS011;50720;54.324;18.558;2022-09-21T12:55:23;2.25;;;0.60;;
42912;SDS011;50720;54.324;18.558;2022-09-21T12:58:17;1.02;;;0.40;;
42912;SDS011;50720;54.324;18.558;2022-09-21T13:01:01;2.42;;;0.57;;
42912;SDS011;50720;54.324;18.558;2022-09-21T13:03:38;1.42;;;0.35;;
42912;SDS011;50720;54.324;18.558;2022-09-21T13:09:26;1.55;;;0.82;;
42912;SDS011;50720;54.324;18.558;2022-09-21T13:11:58;3.42;;;0.50;;
42912;SDS011;50720;54.324;18.558;2022-09-21T13:14:32;2.05;;;0.65;;
42912;SDS011;50720;54.324;18.558;2022-09-21T13:17:15;1.58;;;0.52;;
42912;SDS011;50720;54.324;18.558;2022-09-21T13:19:56;1.05;;;0.57;;
42912;SDS011;50720;54.324;18.558;2022-09-21T13:22:29;3.03;;;0.60;;
42912;SDS011;50720;54.324;18.558;2022-09-21T13:25:03;4.80;;;0.73;;
42912;SDS011;50720;54.324;18.558;2022-09-21T13:30:30;5.45;;;0.47;;
42912;SDS011;50720;54.324;18.558;2022-09-21T13:33:02;3.53;;;0.65;;
42912;SDS011;50720;54.324;18.558;2022-09-21T13:35:59;1.85;;;0.50;;
42912;SDS011;50720;54.324;18.558;2022-09-21T13:38:30;1.33;;;0.43;;
42912;SDS011;50720;54.324;18.558;2022-09-21T13:41:05;2.05;;;1.15;;
42912;SDS011;50720;54.324;18.558;2022-09-21T13:44:36;3.63;;;0.50;;
42912;SDS011;50720;54.324;18.558;2022-09-21T13:47:13;3.33;;;0.50;;
42912;SDS011;50720;54.324;18.558;2022-09-21T13:49:55;3.08;;;0.30;;
42912;SDS011;50720;54.324;18.558;2022-09-21T13:52:32;1.23;;;0.50;;
42912;SDS011;50720;54.324;18.558;2022-09-21T13:55:21;5.78;;;0.50;;
42912;SDS011;50720;54.324;18.558;2022-09-21T13:57:55;2.33;;;0.50;;
42912;SDS011;50720;54.324;18.558;2022-09-21T14:00:34;1.65;;;0.70;;
42912;SDS011;50720;54.324;18.558;2022-09-21T14:03:18;0.77;;;0.28;;
42912;SDS011;50720;54.324;18.558;2022-09-21T14:05:52;1.63;;;0.40;;
42912;SDS011;50720;54.324;18.558;2022-09-21T14:08:24;0.60;;;0.30;;
42912;SDS011;50720;54.324;18.558;2022-09-21T14:10:58;2.17;;;0.60;;
42912;SDS011;50720;54.324;18.558;2022-09-21T14:13:31;3.72;;;0.70;;
42912;SDS011;50720;54.324;18.558;2022-09-21T14:22:40;2.40;;;0.57;;
42912;SDS011;50720;54.324;18.558;2022-09-21T14:28:14;3.92;;;0.70;;
42912;SDS011;50720;54.324;18.558;2022-09-21T14:30:51;2.33;;;0.40;;
42912;SDS011;50720;54.324;18.558;2022-09-21T14:33:34;2.53;;;0.80;;
42912;SDS011;50720;54.324;18.558;2022-09-21T14:36:11;5.00;;;1.73;;
42912;SDS011;50720;54.324;18.558;2022-09-21T14:38:46;2.53;;;0.98;;
42912;SDS011;50720;54.324;18.558;2022-09-21T14:41:21;1.77;;;0.50;;
42912;SDS011;50720;54.324;18.558;2022-09-21T14:43:53;2.60;;;0.60;;
42912;SDS011;50720;54.324;18.558;2022-09-21T14:46:32;1.17;;;0.30;;
42912;SDS011;50720;54.324;18.558;2022-09-21T14:49:15;3.22;;;0.68;;
42912;SDS011;50720;54.324;18.558;2022-09-21T14:52:02;1.15;;;0.63;;
42912;SDS011;50720;54.324;18.558;2022-09-21T14:54:57;1.67;;;0.50;;
42912;SDS011;50720;54.324;18.558;2022-09-21T14:57:39;2.17;;;0.63;;
42912;SDS011;50720;54.324;18.558;2022-09-21T15:00:23;1.13;;;0.70;;
42912;SDS011;50720;54.324;18.558;2022-09-21T15:03:23;2.50;;;0.50;;
42912;SDS011;50720;54.324;18.558;2022-09-21T15:08:55;5.03;;;0.75;;
42912;SDS011;50720;54.324;18.558;2022-09-21T15:12:06;1.73;;;0.75;;
42912;SDS011;50720;54.324;18.558;2022-09-21T15:14:43;3.13;;;0.98;;
42912;SDS011;50720;54.324;18.558;2022-09-21T15:17:22;4.22;;;1.38;;
42912;SDS011;50720;54.324;18.558;2022-09-21T15:19:55;1.73;;;0.50;;
42912;SDS011;50720;54.324;18.558;2022-09-21T15:22:27;3.08;;;0.55;;
42912;SDS011;50720;54.324;18.558;2022-09-21T15:25:01;5.35;;;0.82;;
42912;SDS011;50720;54.324;18.558;2022-09-21T15:27:33;2.63;;;0.70;;
42912;SDS011;50720;54.324;18.558;2022-09-21T15:30:04;3.38;;;0.70;;
42912;SDS011;50720;54.324;18.558;2022-09-21T15:32:46;2.15;;;0.50;;
42912;SDS011;50720;54.324;18.558;2022-09-21T15:35:20;2.10;;;0.50;;
42912;SDS011;50720;54.324;18.558;2022-09-21T15:37:51;3.08;;;0.75;;
42912;SDS011;50720;54.324;18.558;2022-09-21T15:40:22;1.83;;;0.60;;
42912;SDS011;50720;54.324;18.558;2022-09-21T15:43:02;1.45;;;0.90;;
42912;SDS011;50720;54.324;18.558;2022-09-21T15:45:34;1.30;;;0.85;;
42912;SDS011;50720;54.324;18.558;2022-09-21T15:48:10;3.20;;;1.15;;
42912;SDS011;50720;54.324;18.558;2022-09-21T15:50:40;1.67;;;0.60;;
42912;SDS011;50720;54.324;18.558;2022-09-21T15:53:14;2.75;;;0.95;;
42912;SDS011;50720;54.324;18.558;2022-09-21T15:55:48;3.53;;;0.65;;
42912;SDS011;50720;54.324;18.558;2022-09-21T15:58:22;2.15;;;1.05;;
42912;SDS011;50720;54.324;18.558;2022-09-21T16:01:03;3.78;;;1.67;;
42912;SDS011;50720;54.324;18.558;2022-09-21T16:03:38;4.85;;;1.58;;
42912;SDS011;50720;54.324;18.558;2022-09-21T16:11:57;7.63;;;3.40;;
42912;SDS011;50720;54.324;18.558;2022-09-21T16:14:28;9.73;;;3.20;;
42912;SDS011;50720;54.324;18.558;2022-09-21T16:17:20;7.13;;;3.13;;
42912;SDS011;50720;54.324;18.558;2022-09-21T16:20:05;7.70;;;3.10;;